Time;durP1;ratioP1;P1;durP2;ratioP2;P2;SDS_P1;SDS_P2;PMS_P1;PMS_P2;Temp;Humidity;BMP_temperature;BMP_pressure;BME280_temperature;BME280_humidity;BME280_pressure;Samples;Min_cycle;Max_cycle;Signal;HPM_P1;HPM_P2
2024/01/15 00:00:07;;;;;;;23.45;13.65;;;;;;;5.05;58.65;99570.47;674799;29;1202;-84
2024/01/15 00:00:31;;;;;;;25.08;14.27;;;;;;;5.10;59.33;99555.09;672165;29;1519;-84
2024/01/15 00:00:52;;;;;;;23.52;14.15;;;;;;;5.06;58.53;99561.88;672389;29;1709;-84
2024/01/15 00:01:12;;;;;;;21.75;13.75;;;;;;;5.15;58.64;99575.09;672294;29;1337;-84
2024/01/15 00:01:33;;;;;;;20.17;12.77;;;;;;;5.10;58.54;99576.66;674386;29;1575;-83
2024/01/15 00:01:53;;;;;;;20.03;12.63;;;;;;;5.14;58.98;99565.56;674968;29;1090;-84
2024/01/15 00:02:14;;;;;;;19.92;12.23;;;;;;;5.14;58.87;99568.16;672268;29;1249;-84
2024/01/15 00:02:34;;;;;;;22.40;13.30;;;;;;;5.11;59.04;99552.56;672118;29;1556;-83
2024/01/15 00:02:55;;;;;;;22.02;13.20;;;;;;;5.16;58.87;99556.13;672097;29;1084;-84
2024/01/15 00:03:16;;;;;;;22.10;13.40;;;;;;;5.18;58.77;99559.69;674885;29;1274;-84
2024/01/15 00:03:36;;;;;;;19.30;12.27;;;;;;;5.17;58.63;99555.31;674704;29;1198;-84
2024/01/15 00:03:57;;;;;;;19.63;12.43;;;;;;;5.25;58.52;99565.00;674775;29;1801;-85
2024/01/15 00:04:17;;;;;;;18.65;12.38;;;;;;;5.26;58.60;99556.41;679662;29;1510;-84
2024/01/15 00:04:40;;;;;;;19.35;12.63;;;;;;;5.27;58.83;99553.88;673763;29;879;-83
2024/01/15 00:05:00;;;;;;;20.75;12.80;;;;;;;5.22;58.75;99544.25;673006;29;1024;-85
2024/01/15 00:05:21;;;;;;;22.63;13.30;;;;;;;5.17;58.60;99542.38;672521;29;1454;-83
2024/01/15 00:05:41;;;;;;;22.67;13.30;;;;;;;5.12;58.90;99546.56;672948;29;785;-84
2024/01/15 00:06:02;;;;;;;20.25;12.73;;;;;;;5.19;58.95;99551.09;674962;29;1004;-85
2024/01/15 00:06:23;;;;;;;22.48;12.88;;;;;;;5.18;58.79;99548.44;674229;29;1547;-84
2024/01/15 00:06:44;;;;;;;21.88;12.88;;;;;;;5.17;58.43;99547.56;677622;29;808;-84
2024/01/15 00:07:08;;;;;;;21.77;13.07;;;;;;;5.18;58.51;99556.19;675120;29;1102;-84
2024/01/15 00:07:29;;;;;;;19.52;13.13;;;;;;;5.15;58.61;99538.88;672856;29;1604;-83
2024/01/15 00:07:49;;;;;;;19.30;12.60;;;;;;;5.03;59.05;99539.38;675065;29;781;-84
2024/01/15 00:08:10;;;;;;;19.57;12.30;;;;;;;5.08;58.81;99549.84;672376;29;1042;-84
2024/01/15 00:08:30;;;;;;;21.02;12.10;;;;;;;5.09;58.69;99554.19;669392;29;1526;-84
2024/01/15 00:08:51;;;;;;;20.73;12.40;;;;;;;5.11;59.15;99542.22;669755;29;1725;-84
2024/01/15 00:09:11;;;;;;;20.73;12.88;;;;;;;5.19;58.87;99551.09;672228;29;1977;-84
2024/01/15 00:09:32;;;;;;;17.90;12.57;;;;;;;5.16;58.84;99545.78;672692;29;1598;-84
2024/01/15 00:09:52;;;;;;;19.70;12.83;;;;;;;5.12;59.21;99545.66;670171;29;1199;-85
2024/01/15 00:10:13;;;;;;;18.98;12.07;;;;;;;5.10;58.86;99550.81;674936;29;966;-84
2024/01/15 00:10:34;;;;;;;24.98;12.50;;;;;;;5.07;58.92;99540.34;672146;29;1486;-84
2024/01/15 00:10:59;;;;;;;23.60;12.67;;;;;;;5.16;59.14;99550.09;672394;29;819;-84
2024/01/15 00:11:20;;;;;;;23.08;12.35;;;;;;;5.15;58.96;99540.59;669261;29;1636;-83
2024/01/15 00:11:40;;;;;;;19.35;12.43;;;;;;;5.16;59.02;99535.44;669690;29;1149;-83
2024/01/15 00:12:02;;;;;;;20.00;12.93;;;;;;;5.14;58.87;99538.81;669676;29;1531;-84
2024/01/15 00:12:23;;;;;;;19.48;13.20;;;;;;;5.12;59.06;99543.06;670893;29;1565;-84
2024/01/15 00:12:43;;;;;;;21.48;13.65;;;;;;;5.14;58.79;99541.41;669683;29;1220;-84
2024/01/15 00:13:04;;;;;;;21.53;13.30;;;;;;;5.07;58.75;99530.91;672373;29;1217;-85
2024/01/15 00:13:25;;;;;;;23.40;13.30;;;;;;;5.16;58.89;99561.31;676318;29;1497;-83
2024/01/15 00:13:45;;;;;;;22.20;12.88;;;;;;;5.08;58.84;99555.03;672439;29;789;-83
2024/01/15 00:14:06;;;;;;;21.97;13.00;;;;;;;5.10;58.86;99540.47;672189;29;1056;-84
2024/01/15 00:14:27;;;;;;;20.33;12.90;;;;;;;5.18;58.76;99553.63;672063;29;1626;-84
2024/01/15 00:14:48;;;;;;;19.02;12.80;;;;;;;5.15;58.92;99528.53;674860;29;1566;-84
2024/01/15 00:15:09;;;;;;;19.10;12.43;;;;;;;5.20;58.93;99542.50;674857;29;1124;-85
2024/01/15 00:15:30;;;;;;;19.57;12.27;;;;;;;5.19;58.78;99538.16;673797;29;1481;-84
2024/01/15 00:15:50;;;;;;;19.90;11.90;;;;;;;5.16;58.74;99540.63;672786;29;1415;-84
2024/01/15 00:16:11;;;;;;;18.70;12.00;;;;;;;5.26;58.76;99541.78;672146;29;1351;-84
2024/01/15 00:16:32;;;;;;;17.60;12.02;;;;;;;5.17;58.74;99532.03;674019;29;1580;-84
2024/01/15 00:16:54;;;;;;;16.73;12.17;;;;;;;5.18;58.93;99533.81;675519;29;1412;-84
2024/01/15 00:17:15;;;;;;;19.40;12.40;;;;;;;5.23;58.79;99538.22;672143;29;1278;-85
2024/01/15 00:17:36;;;;;;;20.00;12.53;;;;;;;5.26;58.74;99540.91;674578;29;1525;-84
2024/01/15 00:17:56;;;;;;;22.77;12.13;;;;;;;5.20;58.78;99541.59;672102;29;1472;-84
2024/01/15 00:18:17;;;;;;;23.13;12.18;;;;;;;5.19;59.01;99532.97;674673;29;1465;-84
2024/01/15 00:18:38;;;;;;;21.80;12.03;;;;;;;5.19;58.80;99548.50;672245;29;1191;-85
2024/01/15 00:18:58;;;;;;;19.80;12.03;;;;;;;5.12;58.99;99525.88;669760;29;1217;-85
2024/01/15 00:19:19;;;;;;;17.52;11.27;;;;;;;5.14;58.88;99547.47;666667;29;1502;-84
2024/01/15 00:19:39;;;;;;;18.23;11.13;;;;;;;5.13;58.98;99537.97;668412;29;1084;-84
2024/01/15 00:20:00;;;;;;;19.83;11.50;;;;;;;5.19;59.26;99545.91;673255;29;1359;-84
2024/01/15 00:20:20;;;;;;;18.95;11.93;;;;;;;5.25;58.66;99539.16;674123;29;1497;-85
2024/01/15 00:20:41;;;;;;;18.95;11.70;;;;;;;5.22;58.97;99526.13;674974;29;872;-84
2024/01/15 00:21:02;;;;;;;17.97;11.57;;;;;;;5.28;58.91;99549.59;674895;29;1172;-84
2024/01/15 00:21:23;;;;;;;16.98;11.27;;;;;;;5.25;58.92;99531.38;674497;29;1501;-84
2024/01/15 00:21:44;;;;;;;16.50;11.27;;;;;;;5.24;58.90;99542.56;672325;29;1265;-84
2024/01/15 00:22:05;;;;;;;16.88;11.40;;;;;;;5.28;58.81;99541.84;669610;29;1322;-84
2024/01/15 00:22:26;;;;;;;17.92;11.88;;;;;;;5.18;59.00;99532.94;670579;29;1490;-84
2024/01/15 00:22:47;;;;;;;19.10;12.38;;;;;;;5.25;59.01;99533.97;669752;29;1227;-84
2024/01/15 00:23:08;;;;;;;19.95;12.95;;;;;;;5.31;58.88;99545.41;669857;29;1460;-84
2024/01/15 00:23:28;;;;;;;21.38;12.82;;;;;;;5.31;58.94;99539.34;668145;29;1510;-84
2024/01/15 00:23:49;;;;;;;21.00;12.57;;;;;;;5.32;59.09;99544.56;672393;29;1263;-84
2024/01/15 00:24:10;;;;;;;21.98;12.77;;;;;;;5.27;58.96;99543.53;667166;29;1078;-85
2024/01/15 00:24:30;;;;;;;21.85;13.07;;;;;;;5.19;58.92;99530.41;673668;29;1498;-84
2024/01/15 00:24:51;;;;;;;22.67;13.20;;;;;;;5.17;58.66;99536.34;672359;29;1047;-84
2024/01/15 00:25:11;;;;;;;20.23;12.70;;;;;;;5.23;58.62;99548.56;672197;29;1646;-85
2024/01/15 00:25:32;;;;;;;20.58;12.75;;;;;;;5.18;59.07;99538.09;672094;29;1521;-84
2024/01/15 00:25:53;;;;;;;21.60;13.10;;;;;;;5.16;58.76;99535.44;674994;29;1028;-84
2024/01/15 00:26:13;;;;;;;22.20;13.73;;;;;;;5.14;59.25;99537.13;672148;29;1288;-85
2024/01/15 00:26:34;;;;;;;22.65;13.80;;;;;;;5.18;58.94;99543.28;673939;29;1536;-84
2024/01/15 00:26:55;;;;;;;20.88;13.13;;;;;;;5.24;58.84;99537.41;674921;29;991;-85
2024/01/15 00:27:15;;;;;;;22.80;12.70;;;;;;;5.27;59.08;99537.50;674839;29;995;-84
2024/01/15 00:27:37;;;;;;;23.10;12.40;;;;;;;5.29;58.86;99538.41;674497;29;1577;-85
2024/01/15 00:27:57;;;;;;;22.77;12.57;;;;;;;5.28;58.58;99540.13;674686;29;1276;-85
2024/01/15 00:28:18;;;;;;;19.13;12.80;;;;;;;5.30;58.86;99535.00;666866;29;1573;-84
2024/01/15 00:28:39;;;;;;;17.90;12.90;;;;;;;5.31;58.83;99531.56;669892;29;1031;-85
2024/01/15 00:28:59;;;;;;;19.15;12.85;;;;;;;5.27;58.44;99529.75;672033;29;1969;-85
2024/01/15 00:29:20;;;;;;;22.33;12.15;;;;;;;5.31;58.85;99534.16;674539;29;1638;-85
2024/01/15 00:29:41;;;;;;;23.10;11.40;;;;;;;5.36;58.82;99542.06;677539;29;1194;-85
2024/01/15 00:30:01;;;;;;;23.23;11.30;;;;;;;5.25;58.83;99532.28;674883;29;1058;-84
2024/01/15 00:30:22;;;;;;;21.13;11.50;;;;;;;5.20;58.74;99545.06;669381;29;1518;-84
2024/01/15 00:30:43;;;;;;;22.27;12.50;;;;;;;5.26;58.91;99528.84;675025;29;935;-85
2024/01/15 00:31:05;;;;;;;22.37;12.97;;;;;;;5.36;58.69;99542.06;672099;29;1250;-85
2024/01/15 00:31:26;;;;;;;21.33;12.90;;;;;;;5.26;58.82;99533.13;674575;29;1487;-85
2024/01/15 00:31:46;;;;;;;20.30;12.73;;;;;;;5.31;58.71;99542.81;674996;29;798;-85
2024/01/15 00:32:07;;;;;;;21.48;13.23;;;;;;;5.28;58.83;99544.44;675515;29;1343;-85
2024/01/15 00:32:28;;;;;;;21.20;13.80;;;;;;;5.29;58.81;99539.28;675851;29;1461;-85
2024/01/15 00:32:48;;;;;;;23.23;14.03;;;;;;;5.27;58.45;99535.78;677236;29;1294;-85
2024/01/15 00:33:12;;;;;;;22.33;13.30;;;;;;;5.28;58.72;99534.09;677478;29;1064;-85
2024/01/15 00:33:32;;;;;;;21.83;12.77;;;;;;;5.28;58.82;99534.94;671984;29;1446;-85
2024/01/15 00:33:53;;;;;;;22.48;12.93;;;;;;;5.26;58.90;99536.63;672240;29;1156;-84
2024/01/15 00:34:13;;;;;;;22.05;12.98;;;;;;;5.28;58.81;99542.69;676458;29;1331;-85
2024/01/15 00:34:34;;;;;;;22.10;12.87;;;;;;;5.28;59.06;99537.53;674569;29;1493;-85
2024/01/15 00:34:54;;;;;;;19.10;12.18;;;;;;;5.32;59.29;99536.81;674932;29;1005;-86
2024/01/15 00:35:15;;;;;;;17.97;11.80;;;;;;;5.27;58.78;99533.19;672234;29;1171;-85
2024/01/15 00:35:36;;;;;;;21.83;12.57;;;;;;;5.33;58.65;99532.50;671923;29;1628;-84
2024/01/15 00:35:57;;;;;;;23.28;13.32;;;;;;;5.29;58.75;99533.25;672233;29;1052;-85
2024/01/15 00:36:17;;;;;;;25.60;14.10;;;;;;;5.24;59.20;99537.41;668870;29;1642;-84
2024/01/15 00:36:38;;;;;;;21.38;13.23;;;;;;;5.29;58.99;99530.66;669463;29;1663;-86
2024/01/15 00:36:59;;;;;;;25.70;13.35;;;;;;;5.31;58.88;99534.16;669578;29;1346;-85
2024/01/15 00:37:19;;;;;;;23.70;12.50;;;;;;;5.31;59.07;99528.97;671845;29;1528;-85
2024/01/15 00:37:40;;;;;;;23.35;13.05;;;;;;;5.32;58.72;99533.31;672251;29;1219;-84
2024/01/15 00:38:01;;;;;;;21.20;12.65;;;;;;;5.31;58.76;99536.75;669658;29;1294;-85
2024/01/15 00:38:21;;;;;;;21.00;12.70;;;;;;;5.31;59.11;99540.22;669484;29;1630;-84
2024/01/15 00:38:48;;;;;;;21.10;12.63;;;;;;;5.38;58.84;99541.28;669765;29;1297;-84
2024/01/15 00:39:11;;;;;;;19.98;13.38;;;;;;;5.29;58.90;99525.50;670183;29;1277;-85
2024/01/15 00:39:31;;;;;;;19.17;12.90;;;;;;;5.32;59.06;99538.50;673694;29;1600;-85
2024/01/15 00:39:52;;;;;;;21.63;12.63;;;;;;;5.24;58.61;99522.78;674841;29;1271;-85
2024/01/15 00:40:13;;;;;;;20.73;11.70;;;;;;;5.25;58.87;99529.69;677223;29;1362;-84
2024/01/15 00:40:33;;;;;;;19.60;11.57;;;;;;;5.25;59.28;99533.97;674381;29;1681;-85
2024/01/15 00:40:54;;;;;;;19.05;12.45;;;;;;;5.21;58.96;99525.25;672268;29;1186;-85
2024/01/15 00:41:15;;;;;;;19.38;13.05;;;;;;;5.29;59.10;99530.66;672199;29;1302;-85
2024/01/15 00:41:36;;;;;;;21.27;13.10;;;;;;;5.25;59.16;99531.38;674542;29;1525;-85
2024/01/15 00:41:56;;;;;;;23.67;13.35;;;;;;;5.29;58.95;99536.69;672173;29;1444;-85
2024/01/15 00:42:17;;;;;;;22.73;13.50;;;;;;;5.29;58.88;99528.94;672001;29;1258;-84
2024/01/15 00:42:38;;;;;;;21.88;12.77;;;;;;;5.34;58.95;99537.72;671931;29;1539;-85
2024/01/15 00:42:58;;;;;;;17.77;11.82;;;;;;;5.30;58.85;99527.22;672223;29;1233;-85
2024/01/15 00:43:19;;;;;;;16.50;10.90;;;;;;;5.30;59.35;99533.31;671921;29;1599;-85
2024/01/15 00:44:06;;;;;;;16.90;11.70;;;;;;;5.30;59.09;99548.81;674661;29;1673;-85
2024/01/15 00:44:28;;;;;;;21.92;13.13;;;;;;;5.23;59.09;99543.41;672229;29;2219;-85
2024/01/15 00:44:49;;;;;;;16.52;12.02;;;;;;;5.17;58.96;99533.75;672367;29;1388;-86
2024/01/15 00:45:09;;;;;;;15.00;11.53;;;;;;;5.26;59.25;99541.78;669625;29;1113;-85
2024/01/15 00:45:30;;;;;;;17.25;11.50;;;;;;;5.28;59.07;99536.66;667422;29;1556;-84
2024/01/15 00:45:50;;;;;;;19.55;12.43;;;;;;;5.35;59.10;99543.78;669098;29;1100;-85
2024/01/15 00:46:11;;;;;;;22.40;13.60;;;;;;;5.29;59.04;99528.06;667215;29;1154;-86
2024/01/15 00:46:31;;;;;;;21.00;13.80;;;;;;;5.31;58.93;99529.88;666413;29;1481;-85
2024/01/15 00:46:52;;;;;;;23.08;13.10;;;;;;;5.40;59.27;99539.59;669779;29;1087;-85
2024/01/15 00:47:13;;;;;;;23.30;12.30;;;;;;;5.40;58.98;99539.59;669665;29;988;-86
2024/01/15 00:55:52;;;;;;;21.42;11.70;;;;;;;5.41;58.72;99535.31;679645;29;1558;-85
2024/01/15 00:56:14;;;;;;;16.35;10.90;;;;;;;5.40;59.09;99534.44;680104;29;968;-85
2024/01/15 00:56:34;;;;;;;17.20;11.07;;;;;;;5.38;58.53;99530.03;676555;29;1517;-85
2024/01/15 00:56:55;;;;;;;18.67;11.30;;;;;;;5.38;58.80;99524.84;674854;29;1320;-86
2024/01/15 00:57:16;;;;;;;18.33;11.73;;;;;;;5.45;59.14;99519.91;673089;29;1263;-85
2024/01/15 00:57:54;;;;;;;18.50;12.10;;;;;;;5.39;58.88;99524.91;674225;29;1600;-85
2024/01/15 00:58:15;;;;;;;23.90;11.93;;;;;;;5.46;58.84;99524.25;672173;29;974;-86
2024/01/15 00:58:36;;;;;;;22.60;11.80;;;;;;;5.45;58.56;99527.69;671997;29;1604;-85
2024/01/15 00:58:57;;;;;;;17.95;11.73;;;;;;;5.41;58.73;99523.25;672267;29;1051;-87
2024/01/15 00:59:17;;;;;;;17.92;12.15;;;;;;;5.43;58.44;99528.47;669588;29;1233;-85
2024/01/15 00:59:43;;;;;;;17.80;11.90;;;;;;;5.50;58.79;99524.34;667019;29;1580;-86
2024/01/15 01:00:04;;;;;;;17.75;12.10;;;;;;;5.40;58.78;99524.06;669270;29;1613;-85
2024/01/15 01:00:25;;;;;;;18.50;12.15;;;;;;;5.41;58.88;99523.25;670902;29;1753;-85
2024/01/15 01:00:45;;;;;;;17.33;11.77;;;;;;;5.38;58.79;99530.94;669623;29;952;-85
2024/01/15 01:01:06;;;;;;;19.30;12.13;;;;;;;5.37;59.11;99530.88;667127;29;1023;-86
2024/01/15 01:01:26;;;;;;;18.48;11.43;;;;;;;5.36;58.71;99521.34;670350;29;1560;-86
2024/01/15 01:01:47;;;;;;;18.40;11.80;;;;;;;5.37;58.81;99512.75;672247;29;1189;-85
2024/01/15 01:02:08;;;;;;;16.13;11.50;;;;;;;5.42;58.88;99525.03;669522;29;1168;-86
2024/01/15 01:02:28;;;;;;;15.55;11.20;;;;;;;5.36;58.86;99519.66;670523;29;1470;-86
2024/01/15 01:02:49;;;;;;;16.23;10.57;;;;;;;5.42;58.82;99527.59;669663;29;1251;-86
2024/01/15 01:03:09;;;;;;;16.48;10.15;;;;;;;5.51;58.84;99536.47;669607;29;1004;-86
2024/01/15 01:03:30;;;;;;;23.73;11.10;;;;;;;5.46;59.07;99529.44;669275;29;1983;-86
2024/01/15 01:03:50;;;;;;;27.30;12.30;;;;;;;5.43;58.59;99526.78;672265;29;1291;-86
2024/01/15 01:04:11;;;;;;;25.63;12.43;;;;;;;5.46;58.97;99521.66;672080;29;1374;-86
2024/01/15 01:04:32;;;;;;;22.30;12.45;;;;;;;5.40;58.52;99525.81;669515;29;1613;-86
2024/01/15 01:04:52;;;;;;;21.10;11.80;;;;;;;5.45;58.74;99524.19;667151;29;1294;-85
2024/01/15 01:05:13;;;;;;;20.42;11.63;;;;;;;5.41;58.66;99525.81;671679;29;1406;-86
2024/01/15 01:05:37;;;;;;;17.95;11.43;;;;;;;5.37;58.87;99529.16;672022;29;1636;-85
2024/01/15 01:05:58;;;;;;;19.85;11.80;;;;;;;5.43;59.12;99534.53;669744;29;1131;-86
2024/01/15 01:06:18;;;;;;;21.02;11.88;;;;;;;5.33;58.77;99527.31;668993;29;1293;-86
2024/01/15 01:06:39;;;;;;;17.93;11.30;;;;;;;5.30;58.88;99522.94;669441;29;1567;-86
2024/01/15 01:07:00;;;;;;;17.74;11.52;;;;;;;5.38;59.01;99522.28;669455;29;1208;-86
2024/01/15 01:07:21;;;;;;;18.53;11.77;;;;;;;5.44;58.83;99523.34;674245;29;1595;-85
2024/01/15 01:07:41;;;;;;;19.40;12.07;;;;;;;5.41;58.68;99527.56;674796;29;1230;-86
2024/01/15 01:08:02;;;;;;;19.15;11.82;;;;;;;5.42;59.04;99543.13;674899;29;1054;-86
2024/01/15 01:08:22;;;;;;;21.07;11.63;;;;;;;5.40;58.99;99533.56;671826;29;1632;-85
2024/01/15 01:08:43;;;;;;;20.95;11.57;;;;;;;5.43;58.83;99528.47;674742;29;1189;-86
2024/01/15 01:09:04;;;;;;;19.55;11.60;;;;;;;5.44;58.95;99523.34;675023;29;1972;-86
2024/01/15 01:09:25;;;;;;;19.08;11.60;;;;;;;5.43;58.92;99524.19;677546;29;1634;-86
2024/01/15 01:09:45;;;;;;;20.13;11.52;;;;;;;5.45;58.97;99522.50;677408;29;841;-86
2024/01/15 01:10:06;;;;;;;20.40;11.63;;;;;;;5.47;58.86;99528.59;674662;29;1457;-86
2024/01/15 01:10:27;;;;;;;17.45;11.50;;;;;;;5.48;58.98;99522.59;674529;29;1537;-85
2024/01/15 01:10:48;;;;;;;17.48;11.27;;;;;;;5.43;58.96;99529.34;669650;29;1252;-86
2024/01/15 01:11:13;;;;;;;17.40;11.17;;;;;;;5.41;58.93;99519.78;672071;29;1151;-85
2024/01/15 01:11:33;;;;;;;15.88;11.25;;;;;;;5.40;59.29;99526.66;671816;29;1481;-85
2024/01/15 01:11:54;;;;;;;15.60;11.40;;;;;;;5.43;59.03;99523.28;672302;29;1195;-86
2024/01/15 01:12:15;;;;;;;16.20;11.57;;;;;;;5.36;58.77;99522.25;672221;29;901;-86
2024/01/15 01:12:35;;;;;;;16.63;11.87;;;;;;;5.37;58.94;99526.59;669455;29;1578;-85
2024/01/15 01:12:56;;;;;;;17.55;11.77;;;;;;;5.31;58.99;99514.34;669689;29;1168;-85
2024/01/15 01:13:16;;;;;;;18.35;11.68;;;;;;;5.33;59.32;99511.78;671780;29;1136;-86
2024/01/15 01:13:37;;;;;;;21.10;11.90;;;;;;;5.25;58.90;99523.63;672038;29;1506;-85
2024/01/15 01:13:58;;;;;;;24.10;12.15;;;;;;;5.30;59.43;99529.81;674810;29;1050;-86
2024/01/15 01:14:18;;;;;;;21.90;11.90;;;;;;;5.27;59.03;99522.00;672309;29;1012;-86
2024/01/15 01:14:39;;;;;;;19.33;11.53;;;;;;;5.33;59.30;99516.97;674656;29;1490;-86
2024/01/15 01:15:00;;;;;;;18.88;12.00;;;;;;;5.31;59.33;99523.81;671618;29;1467;-86
2024/01/15 01:15:21;;;;;;;20.25;12.02;;;;;;;5.27;59.23;99509.06;669433;29;1495;-85
2024/01/15 01:15:41;;;;;;;20.25;11.50;;;;;;;5.30;59.59;99515.19;672228;29;1380;-86
2024/01/15 01:16:03;;;;;;;18.75;10.63;;;;;;;5.34;59.22;99513.56;672089;29;1258;-87
2024/01/15 01:16:23;;;;;;;19.27;11.05;;;;;;;5.35;59.25;99525.66;669346;29;1529;-85
2024/01/15 01:16:44;;;;;;;23.60;11.60;;;;;;;5.32;59.32;99526.44;669713;29;1296;-85
2024/01/15 01:17:04;;;;;;;22.10;11.80;;;;;;;5.29;59.30;99520.31;664481;29;1158;-86
2024/01/15 01:17:25;;;;;;;22.47;11.30;;;;;;;5.37;59.07;99529.16;667541;29;1502;-85
2024/01/15 01:17:46;;;;;;;18.95;11.57;;;;;;;5.26;59.36;99517.63;672249;29;1224;-86
2024/01/15 01:18:07;;;;;;;19.50;11.98;;;;;;;5.34;59.39;99521.34;672026;29;1039;-85
2024/01/15 01:18:27;;;;;;;16.30;11.75;;;;;;;5.26;59.59;99509.84;672009;29;1599;-86
2024/01/15 01:18:48;;;;;;;21.70;11.47;;;;;;;5.35;59.62;99525.66;674875;29;937;-86
2024/01/15 01:19:08;;;;;;;22.42;11.00;;;;;;;5.31;59.35;99514.34;674777;29;1099;-86
2024/01/15 01:19:30;;;;;;;23.40;11.38;;;;;;;5.38;59.32;99524.84;677153;29;1567;-86
2024/01/15 01:19:50;;;;;;;16.77;10.60;;;;;;;5.33;59.24;99520.44;674734;29;1188;-86
2024/01/15 01:20:11;;;;;;;16.35;9.75;;;;;;;5.37;59.11;99524.00;674723;29;1038;-86
2024/01/15 01:20:31;;;;;;;16.17;9.50;;;;;;;5.38;59.61;99515.41;674420;29;1590;-86
2024/01/15 01:20:52;;;;;;;18.50;10.07;;;;;;;5.37;59.31;99513.66;672242;29;1295;-86
2024/01/15 01:21:12;;;;;;;17.80;10.45;;;;;;;5.37;59.33;99516.25;672162;29;1252;-85
2024/01/15 01:21:33;;;;;;;19.03;10.87;;;;;;;5.37;59.15;99518.81;672064;29;1886;-86
2024/01/15 01:21:54;;;;;;;17.95;10.50;;;;;;;5.42;59.15;99522.44;674888;29;1338;-86
2024/01/15 01:22:14;;;;;;;21.73;10.67;;;;;;;5.33;59.19;99512.69;672202;29;980;-86
2024/01/15 01:22:35;;;;;;;22.80;11.05;;;;;;;5.42;59.32;99522.44;669303;29;1573;-86
2024/01/15 01:22:55;;;;;;;27.13;12.40;;;;;;;5.39;59.18;99505.94;671645;29;1329;-86
2024/01/15 01:23:16;;;;;;;24.63;12.10;;;;;;;5.41;59.27;99510.31;666982;29;1271;-86
2024/01/15 01:23:37;;;;;;;25.13;11.80;;;;;;;5.48;59.32;99513.97;669375;29;1534;-86
2024/01/15 01:23:57;;;;;;;21.73;11.05;;;;;;;5.42;59.22;99509.50;672072;29;1705;-86
2024/01/15 01:24:18;;;;;;;19.58;11.13;;;;;;;5.44;59.04;99513.00;672026;29;1137;-86
2024/01/15 01:24:38;;;;;;;18.23;10.77;;;;;;;5.40;59.37;99508.56;670892;29;1576;-86
2024/01/15 01:24:59;;;;;;;16.65;11.02;;;;;;;5.35;59.26;99504.97;669537;29;1218;-86
2024/01/15 01:25:20;;;;;;;22.40;11.30;;;;;;;5.38;59.42;99499.88;674736;29;1280;-86
2024/01/15 01:25:40;;;;;;;22.30;11.50;;;;;;;5.39;59.03;99496.44;677252;29;1092;-85
2024/01/15 01:26:01;;;;;;;24.70;11.90;;;;;;;5.38;58.94;99499.00;674767;29;947;-85
2024/01/15 01:26:21;;;;;;;20.05;11.85;;;;;;;5.40;59.08;99503.38;671298;29;1556;-86
2024/01/15 01:26:42;;;;;;;19.70;11.80;;;;;;;5.38;59.12;99502.47;672224;29;1286;-86
2024/01/15 01:27:02;;;;;;;23.25;12.13;;;;;;;5.41;59.01;99509.44;672283;29;1070;-85
2024/01/15 01:27:23;;;;;;;22.53;12.03;;;;;;;5.37;58.98;99508.47;674189;29;1550;-86
2024/01/15 01:27:43;;;;;;;22.27;12.20;;;;;;;5.34;59.03;99503.22;671773;29;1151;-86
2024/01/15 01:28:04;;;;;;;19.38;11.80;;;;;;;5.35;58.93;99507.56;671264;29;1472;-86
2024/01/15 01:28:25;;;;;;;21.77;12.05;;;;;;;5.36;59.21;99506.72;672003;29;1660;-86
2024/01/15 01:28:45;;;;;;;20.27;11.30;;;;;;;5.32;59.11;99502.28;672256;29;855;-86
2024/01/15 01:29:06;;;;;;;18.70;10.70;;;;;;;5.33;59.04;99511.78;669525;29;1915;-86
2024/01/15 01:29:27;;;;;;;19.30;11.10;;;;;;;5.29;59.10;99497.88;671943;29;1284;-86
2024/01/15 01:29:48;;;;;;;23.08;11.93;;;;;;;5.28;58.81;99496.13;669600;29;1207;-86
2024/01/15 01:30:08;;;;;;;24.85;12.65;;;;;;;5.30;59.10;99502.25;671896;29;1739;-86
2024/01/15 01:30:29;;;;;;;25.38;12.07;;;;;;;5.30;59.07;99493.59;670506;29;1573;-85
2024/01/15 01:30:49;;;;;;;22.77;11.87;;;;;;;5.29;59.09;99495.31;674403;29;1395;-85
2024/01/15 01:31:10;;;;;;;24.08;11.55;;;;;;;5.28;58.80;99503.03;671341;29;1673;-86
2024/01/15 01:31:30;;;;;;;22.50;11.67;;;;;;;5.29;59.00;99499.63;671208;29;1487;-86
2024/01/15 01:31:51;;;;;;;24.10;11.45;;;;;;;5.32;59.17;99510.03;669794;29;754;-86
2024/01/15 01:32:12;;;;;;;20.23;10.80;;;;;;;5.18;59.02;99497.59;672099;29;1335;-85
2024/01/15 01:32:32;;;;;;;19.20;10.67;;;;;;;5.17;58.92;99503.59;672033;29;1492;-86
2024/01/15 01:32:53;;;;;;;21.23;11.02;;;;;;;5.13;59.01;99491.41;672183;29;1213;-86
2024/01/15 01:33:13;;;;;;;22.80;11.40;;;;;;;5.11;59.10;99490.50;670231;29;1606;-86
2024/01/15 01:33:34;;;;;;;23.23;11.47;;;;;;;5.05;59.14;99493.75;670336;29;1561;-85
2024/01/15 01:33:54;;;;;;;18.38;10.70;;;;;;;5.06;59.27;99500.72;667162;29;778;-86
2024/01/15 01:34:16;;;;;;;19.70;11.60;;;;;;;5.13;59.42;99506.03;668001;29;1037;-86
2024/01/15 01:34:43;;;;;;;18.30;11.25;;;;;;;5.10;59.09;99501.69;671856;29;1649;-86
2024/01/15 01:35:04;;;;;;;19.25;11.25;;;;;;;5.06;59.46;99497.22;671929;29;1296;-86
2024/01/15 01:35:25;;;;;;;20.92;11.20;;;;;;;5.01;59.35;99501.38;672798;29;1576;-86
2024/01/15 01:35:46;;;;;;;21.75;11.15;;;;;;;4.95;59.55;99483.97;677047;29;1353;-86
2024/01/15 01:36:09;;;;;;;22.02;11.80;;;;;;;4.95;59.34;99493.47;672029;29;1273;-86
2024/01/15 01:36:31;;;;;;;22.30;11.95;;;;;;;4.99;59.74;99487.53;670369;29;1498;-86
2024/01/15 01:36:51;;;;;;;20.25;11.75;;;;;;;5.01;59.37;99497.09;669368;29;1464;-87
2024/01/15 01:37:15;;;;;;;18.53;11.20;;;;;;;4.97;59.31;99492.66;669842;29;1243;-86
2024/01/15 01:37:36;;;;;;;19.75;11.38;;;;;;;4.92;59.61;99497.69;670033;29;1581;-86
2024/01/15 01:37:57;;;;;;;19.48;11.80;;;;;;;4.96;59.69;99500.38;669546;29;1202;-86
2024/01/15 01:38:17;;;;;;;18.50;11.90;;;;;;;4.96;59.49;99496.06;669560;29;1165;-86
2024/01/15 01:38:38;;;;;;;17.43;11.90;;;;;;;4.93;59.48;99494.25;671376;29;1622;-86
2024/01/15 01:38:58;;;;;;;16.17;11.15;;;;;;;4.97;59.55;99486.63;669878;29;1013;-85
2024/01/15 01:39:19;;;;;;;17.37;10.63;;;;;;;5.00;59.43;99497.03;672042;29;1261;-85
2024/01/15 01:39:41;;;;;;;17.17;10.50;;;;;;;5.02;59.70;99492.78;671973;29;1580;-86
2024/01/15 01:40:01;;;;;;;16.55;10.27;;;;;;;4.98;59.58;99493.53;672082;29;969;-86
2024/01/15 01:40:22;;;;;;;17.42;10.70;;;;;;;5.09;59.33;99507.66;669375;29;1223;-85
2024/01/15 01:40:43;;;;;;;19.08;11.00;;;;;;;5.04;59.42;99504.06;666874;29;1213;-86
2024/01/15 01:41:03;;;;;;;19.70;11.30;;;;;;;5.09;59.21;99505.06;672169;29;991;-86
2024/01/15 01:41:24;;;;;;;18.65;11.68;;;;;;;5.01;59.45;99491.03;669468;29;1672;-86
2024/01/15 01:41:44;;;;;;;18.80;11.40;;;;;;;4.99;59.43;99492.69;669610;29;902;-86
2024/01/15 01:42:05;;;;;;;18.03;10.80;;;;;;;5.04;59.35;99499.75;672131;29;1059;-86
2024/01/15 01:42:26;;;;;;;17.63;10.50;;;;;;;4.99;59.44;99495.28;674399;29;1510;-85
2024/01/15 01:42:46;;;;;;;17.45;10.38;;;;;;;4.97;59.57;99491.78;674670;29;880;-85
2024/01/15 01:43:09;;;;;;;16.93;10.83;;;;;;;5.06;59.41;99505.00;674352;29;1479;-86
2024/01/15 01:43:29;;;;;;;17.60;10.90;;;;;;;4.99;59.24;99496.19;671934;29;1564;-86
2024/01/15 01:43:50;;;;;;;16.70;10.82;;;;;;;5.01;59.16;99488.44;674659;29;1246;-86
2024/01/15 01:44:10;;;;;;;16.17;10.73;;;;;;;5.05;59.36;99498.06;672050;29;1255;-86
2024/01/15 01:44:31;;;;;;;15.00;10.13;;;;;;;5.05;59.39;99492.91;672028;29;1607;-86
2024/01/15 01:44:52;;;;;;;15.88;10.25;;;;;;;4.97;59.22;99512.47;669675;29;1153;-86
2024/01/15 01:45:13;;;;;;;16.27;10.27;;;;;;;5.05;59.49;99506.69;666980;29;1156;-85
2024/01/15 01:45:33;;;;;;;16.83;11.30;;;;;;;4.93;59.45;99489.09;670773;29;1551;-86
2024/01/15 01:45:58;;;;;;;17.13;11.53;;;;;;;4.92;59.52;99505.44;672094;29;1184;-85
2024/01/15 01:46:18;;;;;;;17.38;11.02;;;;;;;5.06;59.59;99510.16;671493;29;956;-86
2024/01/15 01:46:40;;;;;;;16.93;10.27;;;;;;;4.99;59.62;99500.47;674545;29;1559;-86
2024/01/15 01:47:01;;;;;;;25.20;10.55;;;;;;;5.13;59.75;99506.94;669488;29;1376;-87
2024/01/15 01:47:21;;;;;;;26.73;11.25;;;;;;;5.06;59.55;99500.72;672071;29;1186;-85
2024/01/15 01:47:42;;;;;;;26.95;11.45;;;;;;;5.12;59.36;99502.59;669622;29;1029;-86
2024/01/15 01:48:03;;;;;;;19.73;11.20;;;;;;;5.10;59.63;99512.03;669460;29;1138;-88
2024/01/15 01:48:28;;;;;;;17.73;11.10;;;;;;;5.12;59.71;99512.94;669413;29;1582;-86
2024/01/15 01:48:49;;;;;;;18.73;11.10;;;;;;;5.13;59.46;99508.63;672121;29;925;-86